Terminal Aerodrome Forecast
Issued by NWS Shreveport, LA

Home | Current Version | Previous Version | Text Only | Print | Product List | Glossary On
Versions: 1 2 3 4 5 6 7 8 9 10 11 12 13 14
000
FTUS44 KSHV 290910 AAA
TAFLFK
TAF AMD
KLFK 290910Z 2909/3006 16006KT 3SM BR SCT005
      TEMPO 2909/2913 1/2SM FG VV001
     FM291400 18009KT P6SM OVC025
     FM291800 19014G23KT P6SM SCT030
     FM300000 17007KT P6SM SKC=

USA.gov is the U.S. government's official web portal to all federal, state and local government web resources and services.